Time;durP1;ratioP1;P1;durP2;ratioP2;P2;SDS_P1;SDS_P2;PMS_P1;PMS_P2;Temp;Humidity;BMP_temperature;BMP_pressure;BME280_temperature;BME280_humidity;BME280_pressure;Samples;Min_cycle;Max_cycle;Signal;HPM_P1;HPM_P2
2022/11/12 00:02:12;;;;;;;34.75;17.45;;;;;;;7.38;100.00;103065.59;5015788;28;20029;-68
2022/11/12 00:04:38;;;;;;;44.45;22.58;;;;;;;7.59;100.00;103060.81;5015326;28;20075;-68
2022/11/12 00:07:03;;;;;;;46.20;21.67;;;;;;;7.71;100.00;103062.44;5014788;28;20029;-67
2022/11/12 00:09:28;;;;;;;51.00;22.98;;;;;;;7.85;100.00;103053.72;5014656;28;20053;-68
2022/11/12 00:11:53;;;;;;;48.58;24.23;;;;;;;7.97;100.00;103048.34;5014604;28;20109;-68
2022/11/12 00:14:19;;;;;;;51.50;25.60;;;;;;;8.06;100.00;103064.66;5014575;28;20161;-67
2022/11/12 00:16:44;;;;;;;48.63;24.83;;;;;;;8.11;100.00;103067.56;5017097;28;20037;-68
2022/11/12 00:19:09;;;;;;;49.92;25.52;;;;;;;8.19;100.00;103061.13;5018179;28;20034;-68
2022/11/12 00:21:35;;;;;;;49.63;25.10;;;;;;;8.25;100.00;103063.19;5015412;28;20030;-66
2022/11/12 00:24:00;;;;;;;48.03;26.25;;;;;;;8.28;100.00;103061.66;5025074;28;20045;-68
2022/11/12 00:26:25;;;;;;;47.53;24.30;;;;;;;8.31;100.00;103066.19;5025402;28;20575;-68
2022/11/12 00:28:51;;;;;;;43.63;24.20;;;;;;;8.35;100.00;103062.94;5028060;28;20470;-68
2022/11/12 00:31:16;;;;;;;47.42;23.95;;;;;;;8.37;100.00;103060.41;5030258;28;20025;-67
2022/11/12 00:33:42;;;;;;;45.58;24.67;;;;;;;8.40;100.00;103072.00;5021838;28;20386;-67
2022/11/12 00:36:09;;;;;;;47.33;24.50;;;;;;;8.41;100.00;103073.81;5027947;28;20041;-67
2022/11/12 00:38:34;;;;;;;57.20;26.08;;;;;;;8.44;100.00;103071.38;5020227;28;20087;-68
2022/11/12 00:41:00;;;;;;;48.03;25.77;;;;;;;8.51;100.00;103063.94;5032816;28;20037;-68
2022/11/12 00:43:25;;;;;;;45.80;25.48;;;;;;;8.51;100.00;103058.69;5026794;28;20029;-67
2022/11/12 00:45:51;;;;;;;44.08;24.75;;;;;;;8.50;100.00;103056.88;5012789;28;20026;-67
2022/11/12 00:48:16;;;;;;;46.95;25.00;;;;;;;8.52;100.00;103070.97;5027864;28;20059;-68
2022/11/12 00:50:41;;;;;;;45.17;25.45;;;;;;;8.51;100.00;103058.69;5016616;28;20026;-67
2022/11/12 00:53:06;;;;;;;49.72;26.38;;;;;;;8.49;100.00;103066.47;5023136;28;20021;-67
2022/11/12 00:55:32;;;;;;;55.50;27.33;;;;;;;8.46;100.00;103058.38;5031918;28;20025;-68
2022/11/12 00:57:58;;;;;;;47.25;26.52;;;;;;;8.50;100.00;103056.88;5026582;28;20139;-68
2022/11/12 01:00:23;;;;;;;52.25;26.90;;;;;;;8.50;100.00;103056.88;5026750;28;20485;-67
2022/11/12 01:02:49;;;;;;;56.00;27.85;;;;;;;8.50;100.00;103056.88;5017436;28;20381;-68
2022/11/12 01:05:15;;;;;;;49.63;27.13;;;;;;;8.51;100.00;103063.94;5013715;28;20030;-68
2022/11/12 01:07:40;;;;;;;52.70;27.02;;;;;;;8.53;100.00;103049.16;5020124;28;20029;-67
2022/11/12 01:10:08;;;;;;;50.42;27.55;;;;;;;8.51;100.00;103032.44;5025148;28;20025;-70
2022/11/12 01:12:33;;;;;;;50.72;28.90;;;;;;;8.50;100.00;103038.50;5027782;28;20022;-68
2022/11/12 01:14:59;;;;;;;53.90;28.75;;;;;;;8.54;100.00;103045.75;5021391;28;20053;-68
2022/11/12 01:17:24;;;;;;;54.80;27.55;;;;;;;8.51;100.00;103048.19;5021691;28;20029;-67
2022/11/12 01:19:49;;;;;;;53.60;29.55;;;;;;;8.55;100.00;103055.44;5016888;28;20045;-67
2022/11/12 01:22:15;;;;;;;50.13;27.45;;;;;;;8.52;100.00;103058.78;5028989;28;20029;-68
2022/11/12 01:24:40;;;;;;;51.42;28.35;;;;;;;8.50;100.00;103068.25;5020068;28;20059;-68
2022/11/12 01:27:06;;;;;;;58.85;29.85;;;;;;;8.51;100.00;103070.06;5017195;28;20037;-67
2022/11/12 01:29:31;;;;;;;53.20;28.00;;;;;;;8.55;100.00;103071.19;5024888;28;20067;-67
2022/11/12 01:31:57;;;;;;;59.67;28.38;;;;;;;8.51;100.00;103074.44;5041176;28;20378;-68
2022/11/12 01:34:22;;;;;;;47.30;27.08;;;;;;;8.55;100.00;103077.31;5023061;28;20037;-67
2022/11/12 01:36:47;;;;;;;49.20;27.17;;;;;;;8.55;100.00;103071.19;5025617;28;20088;-68
2022/11/12 01:39:13;;;;;;;52.05;27.10;;;;;;;8.56;100.00;103088.72;5013051;28;20141;-67
2022/11/12 01:41:40;;;;;;;49.45;27.95;;;;;;;8.54;100.00;103075.50;5016442;28;20456;-67
2022/11/12 01:44:18;;;;;;;51.35;27.40;;;;;;;8.56;100.00;103067.72;5022473;28;20025;-66
2022/11/12 01:46:58;;;;;;;49.03;27.98;;;;;;;8.54;100.00;103064.13;5027066;28;20413;-67
2022/11/12 01:49:51;;;;;;;51.53;28.25;;;;;;;8.52;100.00;103061.41;5027249;28;20517;-68
2022/11/12 01:52:39;;;;;;;58.38;28.13;;;;;;;8.52;100.00;103053.53;5021524;28;20109;-67
2022/11/12 01:55:18;;;;;;;53.28;29.08;;;;;;;8.53;100.00;103057.97;5028693;28;20408;-67
2022/11/12 01:57:52;;;;;;;55.38;29.17;;;;;;;8.58;100.00;103053.88;5021999;28;20056;-67
2022/11/12 02:00:17;;;;;;;56.28;29.42;;;;;;;8.56;100.00;103060.78;5019017;28;20069;-68
2022/11/12 02:02:47;;;;;;;59.80;29.63;;;;;;;8.56;100.00;103057.22;5024069;28;20053;-67
2022/11/12 02:05:13;;;;;;;66.85;30.75;;;;;;;8.58;100.00;103060.84;5018509;28;20047;-66
2022/11/12 02:07:42;;;;;;;64.05;32.10;;;;;;;8.56;100.00;103052.91;5020822;28;20029;-67
2022/11/12 02:10:08;;;;;;;60.30;29.75;;;;;;;8.58;100.00;103052.97;5023187;28;20034;-68
2022/11/12 02:15:18;;;;;;;70.78;33.20;;;;;;;8.62;100.00;103060.22;5026556;28;20488;-68
2022/11/12 02:17:44;;;;;;;66.68;31.70;;;;;;;8.60;100.00;103047.03;5023142;28;20018;-68
2022/11/12 02:20:11;;;;;;;66.32;30.67;;;;;;;8.63;100.00;103037.50;5014104;28;20034;-68
2022/11/12 02:22:36;;;;;;;61.05;31.02;;;;;;;8.64;100.00;103034.06;5023755;28;20470;-68
2022/11/12 02:25:02;;;;;;;69.05;31.98;;;;;;;8.64;100.00;103037.63;5031163;28;20032;-69
2022/11/12 02:27:28;;;;;;;67.15;31.90;;;;;;;8.63;100.00;103033.19;5024068;28;20034;-67
2022/11/12 02:29:53;;;;;;;70.90;34.60;;;;;;;8.67;100.00;103031.63;5026476;28;20021;-67
2022/11/12 02:32:19;;;;;;;66.90;33.25;;;;;;;8.59;100.00;103025.94;5023234;28;20092;-67
2022/11/12 02:34:45;;;;;;;73.10;34.03;;;;;;;8.59;100.00;103028.56;5021638;28;20026;-69
2022/11/12 02:37:10;;;;;;;68.82;33.58;;;;;;;8.60;100.00;103031.28;5023434;28;20057;-68
2022/11/12 02:39:36;;;;;;;77.05;32.72;;;;;;;8.61;100.00;103026.91;5012510;28;20055;-68
2022/11/12 02:42:01;;;;;;;68.72;33.78;;;;;;;8.60;100.00;103023.41;5012507;28;20060;-68
2022/11/12 02:44:27;;;;;;;72.15;32.83;;;;;;;8.62;100.00;103020.88;5012277;28;20030;-67
2022/11/12 02:46:53;;;;;;;71.85;33.53;;;;;;;8.60;100.00;103017.25;5012431;28;20061;-67
2022/11/12 02:49:18;;;;;;;76.10;35.35;;;;;;;8.60;100.00;103015.53;5012544;28;20057;-67
2022/11/12 02:51:43;;;;;;;67.80;31.85;;;;;;;8.55;100.00;103014.34;5017412;28;20056;-68
2022/11/12 02:54:08;;;;;;;77.25;34.60;;;;;;;8.60;100.00;103022.50;5032205;28;20025;-67
2022/11/12 02:56:34;;;;;;;72.65;33.35;;;;;;;8.59;100.00;103029.44;5032767;28;20401;-68
2022/11/12 02:59:00;;;;;;;69.25;32.72;;;;;;;8.59;100.00;103020.69;5025817;28;20033;-68
2022/11/12 03:01:25;;;;;;;73.00;33.83;;;;;;;8.62;100.00;103014.72;5021061;28;20074;-68
2022/11/12 03:03:50;;;;;;;70.50;33.72;;;;;;;8.60;100.00;103018.16;5033806;28;20374;-68
2022/11/12 03:06:16;;;;;;;72.20;32.47;;;;;;;8.60;100.00;103017.25;5015647;28;20113;-67
2022/11/12 03:08:41;;;;;;;66.10;32.85;;;;;;;8.64;100.00;103027.13;5016128;28;20025;-67
2022/11/12 03:11:13;;;;;;;72.57;32.92;;;;;;;8.64;100.00;103027.13;5028404;28;20056;-68
2022/11/12 03:13:39;;;;;;;63.55;30.88;;;;;;;8.69;100.00;103028.28;5021470;28;20021;-68
2022/11/12 03:16:04;;;;;;;64.15;31.73;;;;;;;8.67;100.00;103022.06;5033237;28;20036;-67
2022/11/12 03:18:30;;;;;;;66.25;31.92;;;;;;;8.64;100.00;103021.88;5026196;28;20034;-67
2022/11/12 03:20:55;;;;;;;69.07;33.50;;;;;;;8.62;100.00;103030.47;5016200;28;20453;-68
2022/11/12 03:23:20;;;;;;;71.75;32.05;;;;;;;8.55;100.00;103022.22;5034330;28;20026;-67
2022/11/12 03:25:46;;;;;;;68.25;31.60;;;;;;;8.60;100.00;103017.25;5029023;28;20500;-67
2022/11/12 03:28:13;;;;;;;72.43;32.22;;;;;;;8.56;100.00;103020.47;5020222;28;20112;-68
2022/11/12 03:30:41;;;;;;;70.82;31.58;;;;;;;8.58;100.00;103018.88;5015444;28;20482;-68
2022/11/12 03:33:08;;;;;;;70.57;32.08;;;;;;;8.55;100.00;103019.59;5027283;28;20457;-66
2022/11/12 03:35:34;;;;;;;71.22;32.72;;;;;;;8.55;100.00;103023.94;5025794;28;20033;-67
2022/11/12 03:38:00;;;;;;;67.45;32.10;;;;;;;8.55;100.00;103034.44;5034112;28;20031;-68
2022/11/12 03:40:26;;;;;;;71.60;31.65;;;;;;;8.51;100.00;103027.19;5015066;28;20022;-68
2022/11/12 03:42:52;;;;;;;68.13;30.45;;;;;;;8.51;100.00;103021.94;5021361;28;20025;-67
2022/11/12 03:45:19;;;;;;;75.38;34.00;;;;;;;8.53;100.00;103028.19;5021879;28;20096;-70
2022/11/12 03:47:47;;;;;;;73.60;32.03;;;;;;;8.51;100.00;103028.09;5021825;28;20044;-67
2022/11/12 03:50:15;;;;;;;67.75;30.60;;;;;;;8.55;100.00;103023.94;5033255;28;20029;-68
2022/11/12 03:52:45;;;;;;;77.00;32.65;;;;;;;8.60;100.00;103022.50;5033815;28;20029;-67
2022/11/12 03:55:10;;;;;;;80.10;33.35;;;;;;;8.60;100.00;103031.28;5028196;28;20381;-68
2022/11/12 03:57:36;;;;;;;70.70;32.25;;;;;;;8.58;100.00;103032.00;5022158;28;20124;-68
2022/11/12 04:00:02;;;;;;;77.72;31.50;;;;;;;8.56;100.00;103028.34;5026098;28;20453;-69
2022/11/12 04:02:29;;;;;;;76.40;31.48;;;;;;;8.55;100.00;103023.94;5025052;28;20897;-67
2022/11/12 04:10:22;;;;;;;74.88;29.75;;;;;;;8.54;100.00;103030.00;5032876;28;20056;-68
2022/11/12 04:15:31;;;;;;;72.07;30.25;;;;;;;8.52;100.00;103029.91;5031429;28;20140;-67
2022/11/12 04:23:24;;;;;;;74.17;28.90;;;;;;;8.49;100.00;103034.97;5032814;28;19924;-68
2022/11/12 04:28:33;;;;;;;;;;;;;;;8.44;100.00;103026.78;5022739;28;20045;-67
2022/11/12 04:30:59;;;;;;;64.60;28.40;;;;;;;8.46;100.00;103028.63;5016180;28;19913;-67
2022/11/12 04:33:24;;;;;;;58.72;26.70;;;;;;;8.44;100.00;103037.28;5019841;28;20283;-66
2022/11/12 04:35:49;;;;;;;61.45;28.70;;;;;;;8.46;100.00;103028.63;5030918;28;20037;-68
2022/11/12 04:38:17;;;;;;;60.25;28.25;;;;;;;8.46;100.00;103039.13;5020081;28;20466;-67
2022/11/12 04:46:10;;;;;;;61.63;28.70;;;;;;;8.42;100.00;103028.41;5017571;28;20133;-66
2022/11/12 04:48:35;;;;;;;59.63;27.20;;;;;;;8.40;100.00;103030.03;5017818;28;20537;-67
2022/11/12 04:52:03;;;;;;;58.65;28.73;;;;;;;8.39;100.00;103017.72;5021568;28;20097;-67
2022/11/12 04:53:48;;;;;;;56.55;27.83;;;;;;;8.37;100.00;103016.75;5027926;28;20822;-68
2022/11/12 04:56:13;;;;;;;64.32;29.02;;;;;;;8.36;100.00;103017.53;5028857;28;20073;-67
2022/11/12 04:58:39;;;;;;;65.32;29.55;;;;;;;8.34;100.00;103011.31;5018370;28;20111;-67
2022/11/12 05:01:04;;;;;;;61.72;29.05;;;;;;;8.31;100.00;103013.72;5015889;28;20086;-67
2022/11/12 05:03:29;;;;;;;52.30;26.92;;;;;;;8.27;100.00;103009.09;5020465;28;20067;-68
2022/11/12 05:06:49;;;;;;;58.58;27.88;;;;;;;8.23;100.00;103001.88;5019977;28;20104;-67
2022/11/12 05:08:49;;;;;;;58.30;27.35;;;;;;;8.19;100.00;102997.25;5020761;28;20029;-66
2022/11/12 05:11:14;;;;;;;56.75;26.08;;;;;;;8.15;100.00;103005.75;5031573;28;20025;-67
2022/11/12 05:13:39;;;;;;;55.33;27.20;;;;;;;8.09;100.00;103007.16;5031469;28;20037;-68
2022/11/12 05:16:05;;;;;;;62.67;28.55;;;;;;;8.04;100.00;102998.09;5024455;28;20031;-66
2022/11/12 05:18:30;;;;;;;63.38;28.92;;;;;;;8.03;100.00;102995.38;5015326;28;20092;-65
2022/11/12 05:20:55;;;;;;;49.83;25.60;;;;;;;7.99;100.00;102999.56;5022127;28;20057;-67
2022/11/12 05:23:21;;;;;;;52.55;25.88;;;;;;;7.97;100.00;102990.69;5029571;28;20120;-67
2022/11/12 05:25:46;;;;;;;129.10;26.75;;;;;;;7.89;100.00;102994.53;5015419;28;20405;-68
2022/11/12 05:28:11;;;;;;;98.32;26.13;;;;;;;7.86;100.00;102996.97;5020440;28;20034;-68
2022/11/12 05:30:37;;;;;;;71.10;25.73;;;;;;;7.85;100.00;102997.78;5013380;28;20030;-67
2022/11/12 05:33:02;;;;;;;143.73;28.55;;;;;;;7.80;100.00;102991.34;5017455;28;20041;-68
2022/11/12 05:35:27;;;;;;;137.82;25.90;;;;;;;7.74;100.00;102998.00;5022443;28;20524;-68
2022/11/12 05:37:53;;;;;;;96.93;25.88;;;;;;;7.71;100.00;103003.06;5026629;28;20428;-68
2022/11/12 05:40:18;;;;;;;260.50;27.02;;;;;;;7.63;100.00;103001.66;5019783;28;20022;-67
2022/11/12 05:42:43;;;;;;;93.57;24.38;;;;;;;7.58;100.00;103003.09;5028106;28;20111;-68
2022/11/12 05:45:09;;;;;;;60.42;22.38;;;;;;;7.54;100.00;102996.78;5028344;28;20029;-66
2022/11/12 05:47:34;;;;;;;41.35;21.70;;;;;;;7.49;100.00;102999.88;5014505;28;20458;-68
2022/11/12 05:49:59;;;;;;;67.95;21.88;;;;;;;7.46;100.00;102994.44;5015061;28;20402;-68
2022/11/12 05:52:25;;;;;;;43.22;20.23;;;;;;;7.34;100.00;102984.09;5030166;28;20017;-67
2022/11/12 05:54:50;;;;;;;50.53;20.40;;;;;;;7.30;100.00;103001.34;5031089;28;20029;-68
2022/11/12 05:57:15;;;;;;;36.13;20.35;;;;;;;7.25;100.00;102997.50;5016604;28;20077;-67
2022/11/12 05:59:41;;;;;;;69.50;22.23;;;;;;;7.21;100.00;103003.34;5029086;28;20026;-66
2022/11/12 06:02:06;;;;;;;38.90;19.60;;;;;;;7.16;100.00;103000.44;5025093;28;20030;-67
2022/11/12 06:04:31;;;;;;;42.33;19.85;;;;;;;7.15;100.00;103009.09;5017415;28;20030;-68
2022/11/12 06:06:57;;;;;;;37.05;21.45;;;;;;;7.13;100.00;102999.31;5019342;28;20044;-68
2022/11/12 06:09:22;;;;;;;53.42;20.67;;;;;;;7.08;100.00;102992.06;5028212;28;20033;-68
2022/11/12 06:11:47;;;;;;;43.60;20.38;;;;;;;7.05;100.00;103002.34;5026096;28;20017;-67
2022/11/12 06:14:13;;;;;;;44.65;19.55;;;;;;;6.97;100.00;102998.28;5024910;28;20056;-67
2022/11/12 06:16:38;;;;;;;34.72;18.85;;;;;;;6.86;100.00;102999.31;5016313;28;20017;-68
2022/11/12 06:19:03;;;;;;;42.00;18.42;;;;;;;6.82;100.00;103002.53;5031937;28;20144;-66
2022/11/12 06:21:29;;;;;;;53.25;19.40;;;;;;;6.78;100.00;103000.50;5027333;28;20030;-67
2022/11/12 06:23:57;;;;;;;50.78;18.65;;;;;;;6.70;100.00;103000.91;5022277;28;20474;-67
2022/11/12 06:26:25;;;;;;;24.98;16.58;;;;;;;6.66;100.00;103005.81;5017723;28;20427;-68
2022/11/12 06:28:51;;;;;;;76.82;17.90;;;;;;;6.62;100.00;103014.25;5024835;28;20524;-68
2022/11/12 06:31:17;;;;;;;39.45;19.95;;;;;;;6.57;100.00;103014.84;5033877;28;20033;-68
2022/11/12 06:33:44;;;;;;;26.52;17.63;;;;;;;6.53;100.00;103014.56;5020271;28;20030;-67
2022/11/12 06:36:11;;;;;;;42.65;17.33;;;;;;;6.49;100.00;103008.19;5018624;28;20494;-67
2022/11/12 06:38:38;;;;;;;36.63;18.05;;;;;;;6.43;100.00;103007.81;5026912;28;20052;-67
2022/11/12 06:41:05;;;;;;;28.10;16.38;;;;;;;6.39;100.00;103005.78;5016274;28;20037;-67
2022/11/12 06:43:32;;;;;;;39.40;16.52;;;;;;;6.33;100.00;103003.63;5023394;28;20077;-68
2022/11/12 06:46:02;;;;;;;25.23;16.95;;;;;;;6.28;100.00;103004.09;5016202;28;20593;-67
2022/11/12 06:48:28;;;;;;;27.27;16.27;;;;;;;6.22;100.00;103007.22;5020004;28;20553;-69
2022/11/12 06:50:55;;;;;;;24.70;16.05;;;;;;;6.20;100.00;103008.78;5017515;28;20374;-68
2022/11/12 06:53:20;;;;;;;25.23;16.27;;;;;;;6.15;100.00;103018.06;5025160;28;20055;-67
2022/11/12 06:55:45;;;;;;;23.67;15.40;;;;;;;6.08;100.00;103020.22;5028037;28;20022;-67
2022/11/12 06:58:11;;;;;;;28.63;16.10;;;;;;;6.13;100.00;103024.88;5016913;28;20105;-68
2022/11/12 07:00:36;;;;;;;25.52;15.00;;;;;;;6.05;100.00;103020.03;5017214;28;20639;-68
2022/11/12 07:03:09;;;;;;;23.27;15.40;;;;;;;6.06;100.00;103026.13;5027815;28;20025;-68
2022/11/12 07:05:36;;;;;;;23.48;15.77;;;;;;;6.05;100.00;103025.25;5019549;28;20038;-68
2022/11/12 07:08:03;;;;;;;22.60;15.00;;;;;;;6.08;100.00;103029.78;5020533;28;20021;-69
2022/11/12 07:10:28;;;;;;;24.75;16.42;;;;;;;6.06;100.00;103036.59;5034013;28;20425;-67
2022/11/12 07:12:53;;;;;;;28.98;16.80;;;;;;;6.05;100.00;103037.38;5022932;28;20021;-67
2022/11/12 07:15:19;;;;;;;25.10;15.05;;;;;;;6.06;100.00;103041.81;5024796;28;20117;-67
2022/11/12 07:17:45;;;;;;;25.10;15.90;;;;;;;6.07;100.00;103043.66;5020998;28;20466;-68
2022/11/12 07:20:10;;;;;;;24.52;15.55;;;;;;;6.11;100.00;103047.41;5032362;28;20094;-67
2022/11/12 07:22:36;;;;;;;22.38;15.52;;;;;;;6.10;100.00;103041.25;5039264;28;20021;-66
2022/11/12 07:25:01;;;;;;;25.67;16.27;;;;;;;6.10;100.00;103038.63;5034669;28;20034;-68
2022/11/12 07:27:29;;;;;;;24.05;15.82;;;;;;;6.13;100.00;103032.72;5029636;28;20047;-68
2022/11/12 07:29:54;;;;;;;25.75;16.70;;;;;;;6.15;100.00;103032.03;5042126;28;20063;-68
2022/11/12 07:32:20;;;;;;;22.20;14.70;;;;;;;6.14;100.00;103038.03;5029741;28;20025;-68
2022/11/12 07:34:46;;;;;;;22.70;14.18;;;;;;;6.16;100.00;103040.75;5042406;28;20033;-67
2022/11/12 07:37:11;;;;;;;22.23;15.45;;;;;;;6.16;100.00;103043.38;5026466;28;20030;-67
2022/11/12 07:39:36;;;;;;;22.90;14.73;;;;;;;6.18;100.00;103036.56;5033075;28;20486;-67
2022/11/12 07:42:02;;;;;;;24.17;14.98;;;;;;;6.19;100.00;103033.16;5030173;28;20037;-68
2022/11/12 07:44:27;;;;;;;19.98;14.82;;;;;;;6.21;100.00;103037.69;5021487;28;20100;-68
2022/11/12 07:46:52;;;;;;;25.45;15.73;;;;;;;6.28;100.00;103040.72;5031133;28;20033;-68
2022/11/12 07:49:18;;;;;;;25.70;15.25;;;;;;;6.30;100.00;103028.66;5024983;28;20505;-68
2022/11/12 07:51:43;;;;;;;24.48;16.05;;;;;;;6.31;100.00;103036.63;5046344;28;20039;-68
2022/11/12 07:54:08;;;;;;;22.38;15.30;;;;;;;6.34;100.00;103034.19;5026317;28;20165;-69
2022/11/12 07:56:33;;;;;;;20.42;14.75;;;;;;;6.35;100.00;103041.25;5038801;28;20114;-68
2022/11/12 07:58:59;;;;;;;21.13;15.20;;;;;;;6.38;100.00;103037.94;5053695;28;20025;-68
2022/11/12 08:01:32;;;;;;;23.33;14.18;;;;;;;6.41;100.00;103051.22;5030170;28;20088;-69
2022/11/12 08:04:03;;;;;;;23.00;15.73;;;;;;;6.44;100.00;103051.44;5026680;28;20018;-69
2022/11/12 08:06:29;;;;;;;19.85;14.10;;;;;;;6.47;100.00;103050.75;5015182;28;20036;-69
2022/11/12 08:08:56;;;;;;;22.50;15.40;;;;;;;6.53;100.00;103051.19;5030151;28;20029;-70
2022/11/12 08:11:22;;;;;;;23.17;14.90;;;;;;;6.54;100.00;103053.00;5022738;28;20061;-71
2022/11/12 08:13:48;;;;;;;22.80;15.15;;;;;;;6.56;100.00;103051.38;5022037;28;20021;-69
2022/11/12 08:16:13;;;;;;;17.95;14.02;;;;;;;6.58;100.00;103047.19;5016577;28;20040;-69
2022/11/12 08:18:39;;;;;;;21.33;15.80;;;;;;;6.64;100.00;103049.28;5018852;28;20061;-68
2022/11/12 08:21:08;;;;;;;20.58;15.35;;;;;;;6.65;100.00;103052.00;5031399;28;20025;-69
2022/11/12 08:23:34;;;;;;;23.98;14.68;;;;;;;6.70;100.00;103061.09;5028415;28;20030;-69
2022/11/12 08:26:00;;;;;;;20.42;14.50;;;;;;;6.73;100.00;103058.66;5015737;28;20033;-69
2022/11/12 08:28:33;;;;;;;21.77;14.45;;;;;;;6.77;100.00;103059.78;5019760;28;20025;-69
2022/11/12 08:31:05;;;;;;;22.05;15.15;;;;;;;6.84;100.00;103054.16;5017268;28;20041;-68
2022/11/12 08:33:31;;;;;;;22.08;14.73;;;;;;;6.87;100.00;103056.09;5025489;28;20032;-70
2022/11/12 08:35:56;;;;;;;21.92;14.98;;;;;;;6.90;100.00;103053.66;5015747;28;20029;-69
2022/11/12 08:38:22;;;;;;;23.67;14.48;;;;;;;6.96;100.00;103054.09;5024228;28;20029;-69
2022/11/12 08:40:47;;;;;;;21.38;14.75;;;;;;;7.05;100.00;103056.41;5020243;28;20040;-69
2022/11/12 08:43:13;;;;;;;19.55;13.32;;;;;;;7.14;100.00;103059.63;5030654;28;20099;-69
2022/11/12 08:45:40;;;;;;;19.95;14.38;;;;;;;7.23;100.00;103059.31;5028451;28;20386;-70
2022/11/12 08:48:08;;;;;;;23.02;15.13;;;;;;;7.34;100.00;103050.47;5030777;28;20025;-70
2022/11/12 08:50:34;;;;;;;22.30;14.27;;;;;;;7.49;100.00;103054.88;5018953;28;20052;-70
2022/11/12 08:53:01;;;;;;;20.73;14.32;;;;;;;7.61;100.00;103053.09;5026826;28;20052;-70
2022/11/12 08:55:27;;;;;;;18.48;13.32;;;;;;;7.78;100.00;103061.13;5030086;28;20113;-69
2022/11/12 08:57:53;;;;;;;23.58;14.85;;;;;;;7.93;100.00;103056.84;5025166;28;20076;-69
2022/11/12 09:00:18;;;;;;;19.13;13.27;;;;;;;8.11;100.00;103062.31;5018336;28;20056;-69
2022/11/12 09:02:43;;;;;;;22.33;13.63;;;;;;;8.32;100.00;103062.75;5020167;28;20088;-71
2022/11/12 09:05:09;;;;;;;18.65;13.02;;;;;;;8.58;100.00;103056.50;5027043;28;20033;-70
2022/11/12 09:07:34;;;;;;;20.02;13.27;;;;;;;8.76;100.00;103067.22;5017154;28;20030;-70
2022/11/12 09:10:00;;;;;;;19.88;12.57;;;;;;;9.05;100.00;103068.03;5024318;28;20456;-70
2022/11/12 09:12:26;;;;;;;17.60;12.13;;;;;;;9.37;100.00;103071.66;5025429;28;20082;-68
2022/11/12 09:14:51;;;;;;;14.07;10.95;;;;;;;9.68;100.00;103065.47;5026272;28;20115;-69
2022/11/12 09:17:17;;;;;;;17.88;11.02;;;;;;;9.96;100.00;103060.03;5022312;28;20037;-68
2022/11/12 09:19:42;;;;;;;14.80;11.00;;;;;;;10.18;100.00;103061.19;5032314;28;20116;-69
2022/11/12 09:22:08;;;;;;;16.58;11.43;;;;;;;10.49;100.00;103064.59;5025723;28;20069;-70
2022/11/12 09:24:33;;;;;;;17.35;10.43;;;;;;;10.74;100.00;103065.06;5020074;28;20032;-69
2022/11/12 09:26:59;;;;;;;17.15;12.07;;;;;;;10.92;100.00;103061.53;5031222;28;20025;-69
2022/11/12 09:29:25;;;;;;;18.40;10.23;;;;;;;11.08;100.00;103057.94;5024998;28;20033;-70
2022/11/12 09:31:50;;;;;;;16.33;11.07;;;;;;;11.24;100.00;103059.63;5026114;28;20163;-68
2022/11/12 09:34:15;;;;;;;12.68;9.88;;;;;;;11.35;100.00;103053.13;5036195;28;20735;-68
2022/11/12 09:36:41;;;;;;;15.77;9.18;;;;;;;11.47;100.00;103059.00;5036000;28;20026;-69
2022/11/12 09:39:06;;;;;;;14.38;8.98;;;;;;;11.60;100.00;103062.25;5024683;28;20080;-69
2022/11/12 09:41:34;;;;;;;15.15;10.25;;;;;;;11.73;100.00;103054.09;5028499;28;20059;-69
2022/11/12 09:44:03;;;;;;;14.32;9.98;;;;;;;11.86;100.00;103052.06;5027973;28;20489;-69
2022/11/12 09:46:35;;;;;;;13.15;9.00;;;;;;;12.03;100.00;103051.13;5023330;28;20025;-68
2022/11/12 09:49:11;;;;;;;14.32;9.90;;;;;;;12.17;100.00;103059.69;5034067;28;20029;-68
2022/11/12 09:51:44;;;;;;;14.63;9.20;;;;;;;12.43;100.00;103058.19;5037396;28;20365;-69
2022/11/12 09:54:26;;;;;;;11.07;8.73;;;;;;;12.65;100.00;103053.88;5034699;28;20022;-69
2022/11/12 09:56:53;;;;;;;11.50;8.75;;;;;;;12.89;100.00;103054.03;5020046;28;20076;-69
2022/11/12 09:59:19;;;;;;;15.60;9.05;;;;;;;13.05;100.00;103063.50;5027977;28;20024;-69
2022/11/12 10:02:03;;;;;;;14.73;9.20;;;;;;;13.26;100.00;103052.03;5041887;28;20041;-69
2022/11/12 10:05:10;;;;;;;16.05;9.80;;;;;;;13.53;100.00;103069.88;5031256;28;20354;-69
2022/11/12 10:07:39;;;;;;;12.60;9.50;;;;;;;13.68;100.00;103070.47;5017007;28;20041;-70
2022/11/12 10:10:32;;;;;;;15.10;10.38;;;;;;;13.91;100.00;103065.19;5039785;28;20500;-70
2022/11/12 10:13:04;;;;;;;16.42;9.02;;;;;;;14.02;100.00;103068.25;5032988;28;20032;-69
2022/11/12 10:18:28;;;;;;;14.18;10.23;;;;;;;14.34;100.00;103064.16;5021999;28;20512;-69
2022/11/12 10:20:58;;;;;;;12.73;9.10;;;;;;;14.63;100.00;103067.00;5036387;28;20068;-70
2022/11/12 10:23:35;;;;;;;14.82;8.82;;;;;;;14.42;100.00;103065.34;5030661;28;20474;-70
2022/11/12 10:26:09;;;;;;;11.90;8.60;;;;;;;14.73;100.00;103071.78;5036256;28;20024;-70
2022/11/12 10:28:57;;;;;;;11.18;8.32;;;;;;;15.09;100.00;103068.56;5031867;28;20087;-70
2022/11/12 10:31:22;;;;;;;13.98;8.75;;;;;;;15.42;99.61;103073.19;5025754;28;20653;-70
2022/11/12 10:33:47;;;;;;;12.85;8.73;;;;;;;15.81;98.20;103075.31;5028228;28;20037;-70
2022/11/12 10:36:20;;;;;;;11.13;7.47;;;;;;;16.24;90.41;103080.16;5026296;28;20061;-68
2022/11/12 10:38:47;;;;;;;12.32;8.13;;;;;;;16.34;88.06;103074.22;5023118;28;20079;-70
2022/11/12 10:41:22;;;;;;;12.18;7.43;;;;;;;16.60;88.07;103074.94;5023884;28;20029;-68
2022/11/12 10:44:01;;;;;;;9.45;6.10;;;;;;;16.76;81.24;103078.03;5035423;28;20029;-74
2022/11/12 10:46:34;;;;;;;11.00;6.75;;;;;;;17.11;83.64;103084.28;5026469;28;20108;-68
2022/11/12 10:49:06;;;;;;;10.15;6.60;;;;;;;17.32;77.66;103089.28;5027324;28;20454;-68
2022/11/12 10:51:36;;;;;;;9.43;7.03;;;;;;;17.66;74.87;103090.06;5021210;28;20025;-66
2022/11/12 10:54:37;;;;;;;9.52;6.38;;;;;;;17.59;75.78;103085.44;5036545;28;20028;-69
2022/11/12 10:57:21;;;;;;;7.80;6.35;;;;;;;17.45;78.90;103081.59;5022314;28;20512;-67
2022/11/12 11:00:03;;;;;;;8.35;6.75;;;;;;;17.56;78.54;103082.72;5015747;28;20045;-67
2022/11/12 11:02:29;;;;;;;9.20;6.18;;;;;;;17.58;79.44;103090.75;5028876;28;20060;-68
2022/11/12 11:04:54;;;;;;;7.82;6.32;;;;;;;17.69;82.64;103089.25;5029945;28;20025;-72
2022/11/12 11:07:23;;;;;;;7.28;6.13;;;;;;;17.64;83.11;103082.91;5021777;28;20026;-68
2022/11/12 11:09:56;;;;;;;9.20;6.55;;;;;;;17.79;74.76;103072.59;5022751;28;20478;-67
2022/11/12 11:12:27;;;;;;;10.13;6.32;;;;;;;17.86;73.80;103076.28;5027500;28;20549;-70
2022/11/12 11:15:18;;;;;;;9.73;5.90;;;;;;;17.93;76.48;103072.03;5024996;28;20041;-69
2022/11/12 11:17:44;;;;;;;8.38;5.78;;;;;;;17.95;74.20;103072.97;5023506;28;20025;-70
2022/11/12 11:20:23;;;;;;;9.15;5.53;;;;;;;18.38;70.79;103071.22;5021021;28;20022;-71
2022/11/12 11:23:15;;;;;;;11.07;6.55;;;;;;;18.35;67.24;103065.78;5033148;28;20033;-69
2022/11/12 11:25:42;;;;;;;8.25;5.90;;;;;;;18.25;67.61;103064.72;5031884;28;20022;-69
2022/11/12 11:28:16;;;;;;;8.52;5.68;;;;;;;18.47;67.44;103060.69;5028853;28;20030;-69
2022/11/12 11:30:54;;;;;;;8.82;6.13;;;;;;;18.46;69.03;103058.00;5027491;28;20033;-70
2022/11/12 11:33:51;;;;;;;7.35;5.25;;;;;;;18.45;67.17;103054.47;5023740;28;20032;-69
2022/11/12 11:36:33;;;;;;;9.98;6.03;;;;;;;18.20;67.49;103048.66;5030702;28;20025;-69
2022/11/12 11:39:04;;;;;;;12.98;5.85;;;;;;;18.00;73.85;103044.66;5028235;28;20025;-68
2022/11/12 11:41:47;;;;;;;7.90;5.40;;;;;;;17.86;77.65;103041.66;5034923;28;20113;-68
2022/11/12 11:44:13;;;;;;;;;;;;;;;18.04;70.78;103035.84;5035664;28;20056;-68